Time;durP1;ratioP1;P1;durP2;ratioP2;P2;SDS_P1;SDS_P2;PMS_P1;PMS_P2;Temp;Humidity;BMP_temperature;BMP_pressure;BME280_temperature;BME280_humidity;BME280_pressure;Samples;Min_cycle;Max_cycle;Signal;HPM_P1;HPM_P2
2022/01/06 00:01:03;;;;;;;31.73;5.60;;;25.30;82.20;;;;;;5032605;28;20036;-68
2022/01/06 00:03:31;;;;;;;31.50;6.40;;;25.40;83.00;;;;;;5015791;28;20467;-68
2022/01/06 00:06:02;;;;;;;27.90;5.05;;;25.60;84.10;;;;;;5032454;28;20040;-68
2022/01/06 00:08:29;;;;;;;33.45;5.18;;;25.60;82.00;;;;;;5032779;28;20021;-68
2022/01/06 00:10:57;;;;;;;34.92;6.60;;;25.60;81.70;;;;;;5032664;28;20022;-68
2022/01/06 00:13:45;;;;;;;24.17;4.85;;;25.60;82.60;;;;;;5032551;28;20029;-68
2022/01/06 00:16:23;;;;;;;23.60;4.65;;;25.50;82.00;;;;;;5032238;28;20033;-68
2022/01/06 00:24:25;;;;;;;38.40;6.15;;;25.70;81.30;;;;;;5032539;28;20041;-68
2022/01/06 00:26:52;;;;;;;40.72;6.53;;;25.80;81.40;;;;;;5014938;28;20075;-67
2022/01/06 00:29:20;;;;;;;31.60;6.43;;;25.90;82.10;;;;;;5032213;28;20105;-67
2022/01/06 00:31:47;;;;;;;27.60;5.20;;;26.00;82.40;;;;;;5032391;28;20057;-68
2022/01/06 00:34:14;;;;;;;24.33;5.72;;;25.80;81.10;;;;;;5032224;28;20025;-67
2022/01/06 00:36:44;;;;;;;29.45;4.95;;;25.80;82.50;;;;;;5014867;28;20030;-68
2022/01/06 00:39:12;;;;;;;44.13;5.85;;;25.90;82.30;;;;;;5032088;28;20471;-68
2022/01/06 00:41:39;;;;;;;29.73;5.50;;;25.90;82.20;;;;;;5032268;28;20018;-68
2022/01/06 00:44:07;;;;;;;35.95;7.32;;;26.00;81.50;;;;;;5014653;28;20076;-68
2022/01/06 00:46:34;;;;;;;67.40;8.32;;;25.90;80.90;;;;;;4998536;28;20022;-68
2022/01/06 00:49:01;;;;;;;29.95;5.40;;;26.00;82.00;;;;;;5031877;28;20053;-67
2022/01/06 00:51:28;;;;;;;26.98;4.93;;;26.00;80.80;;;;;;5014195;28;20037;-67
2022/01/06 00:53:59;;;;;;;26.33;4.78;;;25.90;80.40;;;;;;5031857;28;20091;-68
2022/01/06 00:56:26;;;;;;;48.80;6.85;;;25.90;79.70;;;;;;5032099;28;20022;-67
2022/01/06 00:58:53;;;;;;;31.83;6.15;;;25.90;80.90;;;;;;5031848;28;20075;-68
2022/01/06 01:01:20;;;;;;;21.95;4.32;;;25.80;80.30;;;;;;5031851;28;20029;-68
2022/01/06 01:03:47;;;;;;;36.42;6.80;;;25.90;80.20;;;;;;5014270;28;20468;-67
2022/01/06 01:06:14;;;;;;;52.90;6.97;;;26.00;81.00;;;;;;5031836;28;20026;-68
2022/01/06 01:08:42;;;;;;;43.30;7.20;;;26.00;79.90;;;;;;5014454;28;20029;-67
2022/01/06 01:11:09;;;;;;;25.00;5.00;;;26.00;80.00;;;;;;5031868;28;20029;-69
2022/01/06 01:13:54;;;;;;;23.70;5.22;;;26.10;78.70;;;;;;5031509;28;20025;-69
2022/01/06 01:16:29;;;;;;;36.80;6.25;;;26.10;79.40;;;;;;5031604;28;20090;-69
2022/01/06 01:18:57;;;;;;;25.63;4.80;;;26.20;79.50;;;;;;5014959;28;20061;-68
2022/01/06 01:21:28;;;;;;;29.80;5.45;;;26.20;78.80;;;;;;5014252;28;20033;-67
2022/01/06 01:23:59;;;;;;;15.65;3.40;;;26.20;79.20;;;;;;5014576;28;20060;-68
2022/01/06 01:26:27;;;;;;;34.88;5.70;;;26.30;78.90;;;;;;5014243;28;20022;-68
2022/01/06 01:28:54;;;;;;;27.05;6.05;;;26.30;79.70;;;;;;5031746;28;20068;-68
2022/01/06 01:33:49;;;;;;;24.38;4.43;;;26.30;78.10;;;;;;5031918;28;20032;-68
2022/01/06 01:36:16;;;;;;;24.02;4.85;;;26.30;78.60;;;;;;5017596;28;20033;-68
2022/01/06 01:38:44;;;;;;;28.70;4.63;;;26.30;77.80;;;;;;5017955;28;20499;-68
2022/01/06 01:41:11;;;;;;;27.58;4.40;;;26.30;76.40;;;;;;5001670;28;20044;-69
2022/01/06 01:43:38;;;;;;;25.35;5.18;;;26.40;77.40;;;;;;5035358;28;20022;-70
2022/01/06 01:46:12;;;;;;;24.17;5.03;;;26.40;77.20;;;;;;5018107;28;20514;-68
2022/01/06 01:48:43;;;;;;;27.20;5.28;;;26.40;76.80;;;;;;5035097;28;20450;-69
2022/01/06 01:51:10;;;;;;;34.65;5.63;;;26.40;76.40;;;;;;5035293;28;20045;-69
2022/01/06 01:53:38;;;;;;;52.00;9.77;;;26.40;77.50;;;;;;5035408;28;20034;-69
2022/01/06 01:56:09;;;;;;;29.50;5.82;;;26.50;77.90;;;;;;5035369;28;20025;-68
2022/01/06 01:58:36;;;;;;;28.45;5.32;;;26.30;76.90;;;;;;5034933;28;20017;-68
2022/01/06 02:01:04;;;;;;;19.65;4.13;;;26.30;77.50;;;;;;5034881;28;20483;-69
2022/01/06 02:03:31;;;;;;;27.65;5.47;;;26.10;77.50;;;;;;5035040;28;20029;-69
2022/01/06 02:05:58;;;;;;;36.05;5.43;;;26.00;79.10;;;;;;5034839;28;20040;-68
2022/01/06 02:08:25;;;;;;;27.05;4.75;;;25.90;79.30;;;;;;5034878;28;20045;-68
2022/01/06 02:10:52;;;;;;;25.42;5.88;;;25.80;78.90;;;;;;5034710;28;20021;-69
2022/01/06 02:13:23;;;;;;;25.17;5.05;;;25.80;78.10;;;;;;5034801;28;20076;-69
2022/01/06 02:15:51;;;;;;;25.73;3.92;;;25.80;78.20;;;;;;5034780;28;20025;-68
2022/01/06 02:18:18;;;;;;;30.73;5.18;;;25.90;77.60;;;;;;5034689;28;20073;-68
2022/01/06 02:20:45;;;;;;;35.38;6.00;;;26.00;77.70;;;;;;5034747;28;20029;-68
2022/01/06 02:23:12;;;;;;;44.20;5.78;;;26.00;78.30;;;;;;5034767;28;20472;-68
2022/01/06 02:25:39;;;;;;;26.02;4.78;;;26.10;76.70;;;;;;5034606;28;20057;-68
2022/01/06 02:28:06;;;;;;;23.83;4.20;;;26.20;77.40;;;;;;5017078;28;20041;-68
2022/01/06 02:30:35;;;;;;;25.50;4.63;;;26.20;76.00;;;;;;5034419;28;20025;-68
2022/01/06 02:33:03;;;;;;;34.55;5.43;;;26.20;76.70;;;;;;5017442;28;20037;-68
2022/01/06 02:35:30;;;;;;;20.15;4.32;;;26.20;76.40;;;;;;5034421;28;20029;-68
2022/01/06 02:37:58;;;;;;;33.53;6.35;;;26.20;77.10;;;;;;5034806;28;20484;-68
2022/01/06 02:40:26;;;;;;;28.55;4.55;;;26.20;78.10;;;;;;5034407;28;20074;-68
2022/01/06 02:42:55;;;;;;;19.55;4.03;;;26.30;77.30;;;;;;5034139;28;20391;-68
2022/01/06 02:45:28;;;;;;;27.50;4.90;;;26.30;77.50;;;;;;5034469;28;20021;-68
2022/01/06 02:47:55;;;;;;;37.55;6.13;;;26.30;77.10;;;;;;5015587;28;20048;-68
2022/01/06 02:50:23;;;;;;;37.35;6.68;;;26.30;77.70;;;;;;5034100;28;20438;-68
2022/01/06 02:52:50;;;;;;;24.52;4.93;;;26.30;76.50;;;;;;5034238;28;20025;-68
2022/01/06 02:55:17;;;;;;;25.98;4.82;;;26.40;77.60;;;;;;5016465;28;20636;-68
2022/01/06 02:57:45;;;;;;;32.92;6.75;;;26.30;76.80;;;;;;5033925;28;20116;-68
2022/01/06 03:00:14;;;;;;;27.75;4.70;;;26.30;77.00;;;;;;5034037;28;20025;-68
2022/01/06 03:02:43;;;;;;;26.45;5.18;;;26.20;77.90;;;;;;5034071;28;20067;-68
2022/01/06 03:05:11;;;;;;;31.13;6.43;;;26.20;76.90;;;;;;5033580;28;20025;-68
2022/01/06 03:07:40;;;;;;;33.22;6.35;;;26.20;77.60;;;;;;5033657;28;20029;-68
2022/01/06 03:10:10;;;;;;;21.90;4.23;;;26.20;77.20;;;;;;5033686;28;20028;-68
2022/01/06 03:12:40;;;;;;;27.80;5.32;;;26.20;77.40;;;;;;5016572;28;20032;-69
2022/01/06 03:15:09;;;;;;;59.42;8.88;;;26.10;77.10;;;;;;5033610;28;20025;-69
2022/01/06 03:17:37;;;;;;;23.67;4.80;;;26.10;77.70;;;;;;5033305;28;20064;-69
2022/01/06 03:20:05;;;;;;;23.65;4.07;;;26.10;76.80;;;;;;5033398;28;20112;-69
2022/01/06 03:22:32;;;;;;;22.55;5.13;;;26.10;77.40;;;;;;5015081;28;20551;-67
2022/01/06 03:25:00;;;;;;;30.30;6.95;;;26.00;77.60;;;;;;5033476;28;20017;-69
2022/01/06 03:27:27;;;;;;;35.40;5.82;;;26.00;77.80;;;;;;5033398;28;20024;-67
2022/01/06 03:29:54;;;;;;;33.75;5.65;;;26.10;77.90;;;;;;5033033;28;20375;-67
2022/01/06 03:32:21;;;;;;;32.55;5.30;;;26.20;78.70;;;;;;5033355;28;20103;-67
2022/01/06 03:34:48;;;;;;;28.58;5.65;;;26.20;78.20;;;;;;5033143;28;20057;-67
2022/01/06 03:37:16;;;;;;;24.92;4.72;;;26.00;77.60;;;;;;5033096;28;20077;-68
2022/01/06 03:39:43;;;;;;;38.60;5.93;;;26.00;78.40;;;;;;5015722;28;20033;-67
2022/01/06 03:42:11;;;;;;;39.67;6.00;;;26.00;78.70;;;;;;5033355;28;20112;-67
2022/01/06 03:44:38;;;;;;;34.13;5.80;;;26.00;78.10;;;;;;5033297;28;20029;-67
2022/01/06 03:47:06;;;;;;;34.97;6.82;;;26.00;78.10;;;;;;5032911;28;20029;-67
2022/01/06 03:49:33;;;;;;;24.92;4.53;;;26.00;78.20;;;;;;5015488;28;20062;-68
2022/01/06 03:52:01;;;;;;;33.15;5.28;;;26.00;78.30;;;;;;5015057;28;20530;-68
2022/01/06 03:54:28;;;;;;;27.25;5.63;;;26.10;78.00;;;;;;5033061;28;20033;-68
2022/01/06 03:56:56;;;;;;;27.80;5.20;;;26.10;77.10;;;;;;5032913;28;20025;-68
2022/01/06 03:59:23;;;;;;;23.65;5.07;;;26.20;77.40;;;;;;4999684;28;20464;-67
2022/01/06 04:01:50;;;;;;;36.50;6.10;;;26.10;75.70;;;;;;5032645;28;20036;-68
2022/01/06 04:04:18;;;;;;;35.72;6.38;;;26.20;77.20;;;;;;5032856;28;20018;-68
2022/01/06 04:06:45;;;;;;;27.40;4.75;;;26.10;76.60;;;;;;5032842;28;20033;-68
2022/01/06 04:09:12;;;;;;;31.33;4.88;;;26.10;77.10;;;;;;5032767;28;20018;-68
2022/01/06 04:11:39;;;;;;;24.58;4.65;;;26.10;76.80;;;;;;5032582;28;20824;-67
2022/01/06 04:14:06;;;;;;;33.92;5.22;;;26.20;76.50;;;;;;5032466;28;20033;-69
2022/01/06 04:16:36;;;;;;;25.80;5.75;;;26.30;76.30;;;;;;5032156;28;20391;-68
2022/01/06 04:19:03;;;;;;;;;;;26.30;76.40;;;;;;5032594;28;20130;-68
2022/01/06 04:21:31;;;;;;;23.02;4.78;;;26.30;76.40;;;;;;5032207;28;19928;-69
2022/01/06 04:23:58;;;;;;;26.95;5.78;;;26.30;77.70;;;;;;5014882;28;20116;-67
2022/01/06 04:26:25;;;;;;;30.80;6.55;;;26.30;76.50;;;;;;5014633;28;20025;-67
2022/01/06 04:28:53;;;;;;;40.92;8.40;;;26.30;76.80;;;;;;5031983;28;20029;-68
2022/01/06 04:31:23;;;;;;;36.25;5.95;;;26.30;76.30;;;;;;5031918;28;20038;-68
2022/01/06 04:33:50;;;;;;;29.42;5.15;;;26.30;75.80;;;;;;5032112;28;20104;-69
2022/01/06 04:36:18;;;;;;;20.90;4.15;;;26.30;76.30;;;;;;5031947;28;20036;-68
2022/01/06 04:38:45;;;;;;;33.40;5.05;;;26.20;75.70;;;;;;5031580;28;20030;-69
2022/01/06 04:41:12;;;;;;;24.63;4.95;;;26.10;76.40;;;;;;5031979;28;20361;-68
2022/01/06 04:43:39;;;;;;;32.60;6.07;;;26.10;76.50;;;;;;5032046;28;20029;-68
2022/01/06 04:46:06;;;;;;;20.45;4.60;;;26.00;76.60;;;;;;4998178;28;20490;-68
2022/01/06 04:48:35;;;;;;;31.52;5.97;;;26.00;76.90;;;;;;5031531;28;20028;-68
2022/01/06 04:51:03;;;;;;;32.00;6.18;;;26.00;77.10;;;;;;5031763;28;20029;-68
2022/01/06 04:53:30;;;;;;;20.88;5.15;;;26.00;76.00;;;;;;5031684;28;20377;-69
2022/01/06 04:55:59;;;;;;;34.60;5.93;;;26.00;76.40;;;;;;5031656;28;20029;-68
2022/01/06 04:58:27;;;;;;;39.97;6.40;;;26.00;76.70;;;;;;5031732;28;20215;-67
2022/01/06 05:00:54;;;;;;;23.98;5.07;;;26.00;76.60;;;;;;5014164;28;20033;-68
2022/01/06 05:03:22;;;;;;;24.38;4.90;;;26.10;77.30;;;;;;5031732;28;20368;-68
2022/01/06 05:05:49;;;;;;;24.55;4.95;;;26.00;75.90;;;;;;5031594;28;20029;-69
2022/01/06 05:08:16;;;;;;;22.63;4.65;;;26.10;76.20;;;;;;5031902;28;20151;-68
2022/01/06 05:10:43;;;;;;;31.65;5.32;;;26.10;75.30;;;;;;5030442;28;20041;-69
2022/01/06 05:13:11;;;;;;;33.72;6.25;;;26.10;76.40;;;;;;5013866;28;20036;-69
2022/01/06 05:15:38;;;;;;;25.85;6.72;;;26.10;76.70;;;;;;5031818;28;20029;-68
2022/01/06 05:18:05;;;;;;;30.25;6.18;;;26.00;76.50;;;;;;5031561;28;20076;-69
2022/01/06 05:20:32;;;;;;;24.75;5.30;;;26.00;76.50;;;;;;5031707;28;20365;-68
2022/01/06 05:22:59;;;;;;;27.55;4.82;;;25.90;76.20;;;;;;5031961;28;20412;-68
2022/01/06 05:25:28;;;;;;;28.27;5.45;;;25.90;76.50;;;;;;5031844;28;20065;-69
2022/01/06 05:27:56;;;;;;;28.67;4.55;;;25.90;76.70;;;;;;5031701;28;20104;-69
2022/01/06 05:30:23;;;;;;;32.28;6.40;;;25.90;77.10;;;;;;5032028;28;20468;-68
2022/01/06 05:32:50;;;;;;;36.88;6.93;;;25.90;77.10;;;;;;5014172;28;20033;-68
2022/01/06 05:35:18;;;;;;;34.20;6.45;;;25.90;77.60;;;;;;5031660;28;20029;-68
2022/01/06 05:37:45;;;;;;;31.80;6.07;;;26.00;77.70;;;;;;5031191;28;20030;-68
2022/01/06 05:40:13;;;;;;;30.90;5.50;;;26.00;77.50;;;;;;5031008;28;20021;-68
2022/01/06 05:42:40;;;;;;;33.38;6.40;;;26.00;77.60;;;;;;5031363;28;20034;-68
2022/01/06 05:45:08;;;;;;;37.28;5.82;;;26.10;78.30;;;;;;5031182;28;20101;-68
2022/01/06 05:47:35;;;;;;;30.35;4.72;;;26.10;77.50;;;;;;5031370;28;20025;-68
2022/01/06 05:50:03;;;;;;;38.40;5.75;;;26.00;77.60;;;;;;5030753;28;20025;-68
2022/01/06 05:52:31;;;;;;;24.00;5.35;;;25.90;78.50;;;;;;5030957;28;20038;-68
2022/01/06 05:54:58;;;;;;;28.88;5.45;;;25.90;79.10;;;;;;5031316;28;20419;-69
2022/01/06 05:57:25;;;;;;;30.33;5.45;;;25.80;80.10;;;;;;5031220;28;20076;-69
2022/01/06 05:59:52;;;;;;;28.00;4.88;;;25.80;80.10;;;;;;5030923;28;20029;-69
2022/01/06 06:02:19;;;;;;;37.90;7.50;;;25.80;80.70;;;;;;5031166;28;20440;-68
2022/01/06 06:04:46;;;;;;;33.80;6.60;;;25.80;80.70;;;;;;5030984;28;20022;-68
2022/01/06 06:07:14;;;;;;;29.92;5.22;;;25.80;80.00;;;;;;5030959;28;20030;-68
2022/01/06 06:09:41;;;;;;;29.02;5.85;;;25.70;79.90;;;;;;5031035;28;20021;-68
2022/01/06 06:12:08;;;;;;;40.30;6.28;;;25.70;79.60;;;;;;5030868;28;20038;-68
2022/01/06 06:14:36;;;;;;;30.13;5.25;;;25.70;79.80;;;;;;5031100;28;20048;-68
2022/01/06 06:17:03;;;;;;;30.55;6.03;;;25.70;79.70;;;;;;5031215;28;20033;-68
2022/01/06 06:19:30;;;;;;;29.17;5.40;;;25.70;79.40;;;;;;5030878;28;20046;-69
2022/01/06 06:21:57;;;;;;;30.52;5.38;;;25.70;80.00;;;;;;5033774;28;20025;-68
2022/01/06 06:24:24;;;;;;;32.17;6.18;;;25.70;80.30;;;;;;5035172;28;20025;-68
2022/01/06 06:26:52;;;;;;;28.92;4.85;;;25.60;79.30;;;;;;5034947;28;20021;-68
2022/01/06 06:29:20;;;;;;;22.83;5.00;;;25.60;80.40;;;;;;5034676;28;20384;-68
2022/01/06 06:31:47;;;;;;;23.90;5.57;;;25.60;80.70;;;;;;5016883;28;20118;-68
2022/01/06 06:34:14;;;;;;;28.17;4.85;;;25.60;80.60;;;;;;5017138;28;20024;-68
2022/01/06 06:36:42;;;;;;;27.27;4.97;;;25.60;79.50;;;;;;5034494;28;20041;-69
2022/01/06 06:39:09;;;;;;;25.17;5.72;;;25.60;79.20;;;;;;5016906;28;20026;-68
2022/01/06 06:41:36;;;;;;;23.13;5.13;;;25.60;80.00;;;;;;5034441;28;20060;-69
2022/01/06 06:44:04;;;;;;;26.63;5.35;;;25.60;79.20;;;;;;5034194;28;20036;-68
2022/01/06 06:46:31;;;;;;;25.02;5.38;;;25.60;79.30;;;;;;5034382;28;20041;-68
2022/01/06 06:48:58;;;;;;;40.40;5.38;;;25.50;79.40;;;;;;5034563;28;20056;-69
2022/01/06 06:51:25;;;;;;;20.80;4.88;;;25.60;79.20;;;;;;5034309;28;20045;-68
2022/01/06 06:53:52;;;;;;;28.33;5.40;;;25.50;79.40;;;;;;5034305;28;20024;-68
2022/01/06 06:56:19;;;;;;;25.00;4.80;;;25.60;79.10;;;;;;5034344;28;20087;-68
2022/01/06 06:58:47;;;;;;;29.23;4.90;;;25.50;79.20;;;;;;5016549;28;20048;-69
2022/01/06 07:01:14;;;;;;;28.33;5.82;;;25.50;79.00;;;;;;5033983;28;20104;-68
2022/01/06 07:03:41;;;;;;;25.67;4.82;;;25.50;79.00;;;;;;5034027;28;20433;-68
2022/01/06 07:06:08;;;;;;;23.65;4.72;;;25.50;79.00;;;;;;5033843;28;20034;-67
2022/01/06 07:08:35;;;;;;;28.15;6.25;;;25.50;78.60;;;;;;5033606;28;20029;-68
2022/01/06 07:11:02;;;;;;;22.35;4.47;;;25.50;78.90;;;;;;5033946;28;20037;-68
2022/01/06 07:13:30;;;;;;;29.55;5.50;;;25.50;78.80;;;;;;5033906;28;20037;-67
2022/01/06 07:15:57;;;;;;;27.45;5.55;;;25.40;78.90;;;;;;5033907;28;20029;-68
2022/01/06 07:18:24;;;;;;;34.55;6.07;;;25.40;78.60;;;;;;5033885;28;20053;-67
2022/01/06 07:20:51;;;;;;;24.80;4.93;;;25.40;78.50;;;;;;5033909;28;20054;-67
2022/01/06 07:23:18;;;;;;;23.35;4.95;;;25.40;78.10;;;;;;5033833;28;20388;-68
2022/01/06 07:25:46;;;;;;;30.38;5.55;;;25.30;78.10;;;;;;5033848;28;20028;-68
2022/01/06 07:28:13;;;;;;;30.58;4.88;;;25.40;78.50;;;;;;5033470;28;20107;-68
2022/01/06 07:30:40;;;;;;;32.45;6.40;;;25.40;78.80;;;;;;5033571;28;20148;-68
2022/01/06 07:33:07;;;;;;;26.90;4.95;;;25.40;79.00;;;;;;5032954;28;20087;-68
2022/01/06 07:35:34;;;;;;;29.52;5.15;;;25.40;79.00;;;;;;5033479;28;20028;-67
2022/01/06 07:38:01;;;;;;;29.73;5.05;;;25.40;78.70;;;;;;5033296;28;20029;-67
2022/01/06 07:40:29;;;;;;;28.83;4.75;;;25.30;79.10;;;;;;5015553;28;20419;-67
2022/01/06 07:42:56;;;;;;;28.55;5.47;;;25.40;79.30;;;;;;5015699;28;20468;-66
2022/01/06 07:45:23;;;;;;;26.77;5.57;;;25.40;79.60;;;;;;5033239;28;20400;-67
2022/01/06 07:50:24;;;;;;;24.05;5.35;;;25.30;79.70;;;;;;5016214;28;20026;-68
2022/01/06 07:52:51;;;;;;;26.35;5.88;;;25.30;80.20;;;;;;5033156;28;20079;-68
2022/01/06 07:55:19;;;;;;;25.30;5.20;;;25.30;80.50;;;;;;4999321;28;20468;-68
2022/01/06 07:57:46;;;;;;;21.20;5.15;;;25.20;80.30;;;;;;5033133;28;20033;-69
2022/01/06 08:00:14;;;;;;;24.63;5.43;;;25.20;80.20;;;;;;5032787;28;20022;-69
2022/01/06 08:02:41;;;;;;;27.35;5.40;;;25.20;80.50;;;;;;5015713;28;20022;-68
2022/01/06 08:05:11;;;;;;;23.67;5.88;;;25.20;80.20;;;;;;5032768;28;20033;-69
2022/01/06 08:07:39;;;;;;;30.13;6.32;;;25.30;80.40;;;;;;5032697;28;20380;-69
2022/01/06 08:10:07;;;;;;;30.63;5.88;;;25.20;80.30;;;;;;5032653;28;20037;-68
2022/01/06 08:12:34;;;;;;;35.00;5.57;;;25.20;80.50;;;;;;5032559;28;20041;-68
2022/01/06 08:15:01;;;;;;;27.52;4.85;;;25.20;80.30;;;;;;5032748;28;20032;-69
2022/01/06 08:17:28;;;;;;;32.65;7.50;;;25.20;80.50;;;;;;5032718;28;20093;-69
2022/01/06 08:19:56;;;;;;;28.98;5.25;;;25.20;81.00;;;;;;5014895;28;20403;-69
2022/01/06 08:22:23;;;;;;;28.70;6.13;;;25.20;80.90;;;;;;5032538;28;20103;-69
2022/01/06 08:24:52;;;;;;;26.77;6.43;;;25.20;80.70;;;;;;5032418;28;20036;-69
2022/01/06 08:27:20;;;;;;;33.17;6.43;;;25.20;80.90;;;;;;5032598;28;20088;-68
2022/01/06 08:29:47;;;;;;;29.85;5.95;;;25.20;80.80;;;;;;5015011;28;20025;-69
2022/01/06 08:32:14;;;;;;;26.35;5.22;;;25.10;80.40;;;;;;5032401;28;20040;-69
2022/01/06 08:34:41;;;;;;;30.02;5.00;;;25.10;80.60;;;;;;5032244;28;20079;-68
2022/01/06 08:37:08;;;;;;;30.70;5.50;;;25.10;80.60;;;;;;5032258;28;20113;-69
2022/01/06 08:39:35;;;;;;;33.63;6.57;;;25.10;81.00;;;;;;5032568;28;20067;-69
2022/01/06 08:42:03;;;;;;;28.77;4.85;;;25.10;80.90;;;;;;5014828;28;20047;-69
2022/01/06 08:44:31;;;;;;;28.52;5.78;;;25.00;80.90;;;;;;5030221;28;20385;-69
2022/01/06 08:47:00;;;;;;;28.05;5.22;;;25.10;81.10;;;;;;5014402;28;20030;-69
2022/01/06 08:49:28;;;;;;;30.63;4.63;;;25.10;81.20;;;;;;5031884;28;20083;-68
2022/01/06 08:51:55;;;;;;;28.15;4.78;;;25.10;80.80;;;;;;5031775;28;20382;-69
2022/01/06 08:54:22;;;;;;;27.10;4.75;;;25.00;80.90;;;;;;5032176;28;20092;-69
2022/01/06 08:56:49;;;;;;;29.45;5.75;;;25.00;81.10;;;;;;5031983;28;20453;-69
2022/01/06 08:59:17;;;;;;;25.73;4.82;;;25.00;81.40;;;;;;5032430;28;20360;-68
2022/01/06 09:01:44;;;;;;;26.23;5.32;;;25.00;81.30;;;;;;5031729;28;20034;-68
2022/01/06 09:04:11;;;;;;;22.70;4.07;;;25.00;81.40;;;;;;5031865;28;20021;-69
2022/01/06 09:06:38;;;;;;;32.47;5.78;;;25.00;81.60;;;;;;5032158;28;20100;-68
2022/01/06 09:09:05;;;;;;;32.97;5.88;;;25.00;81.60;;;;;;5031761;28;20022;-70
2022/01/06 09:11:33;;;;;;;27.08;5.40;;;24.90;81.60;;;;;;5014226;28;20090;-69
2022/01/06 09:14:00;;;;;;;22.00;4.82;;;24.90;82.00;;;;;;5031270;28;20017;-69
2022/01/06 09:16:27;;;;;;;24.65;5.13;;;24.90;81.90;;;;;;5031617;28;20542;-69
2022/01/06 09:18:54;;;;;;;33.72;5.38;;;24.90;82.00;;;;;;5031409;28;20045;-69
2022/01/06 09:21:23;;;;;;;32.72;5.97;;;24.90;82.10;;;;;;5013964;28;20063;-69
2022/01/06 09:23:52;;;;;;;29.08;5.88;;;24.90;82.20;;;;;;5013789;28;20086;-69
2022/01/06 09:26:19;;;;;;;28.80;5.22;;;24.90;82.30;;;;;;5014176;28;20026;-69
2022/01/06 09:28:46;;;;;;;30.42;5.88;;;24.80;82.40;;;;;;5013958;28;20037;-69
2022/01/06 09:31:14;;;;;;;34.03;5.90;;;24.90;82.70;;;;;;5031417;28;20029;-68
2022/01/06 09:33:41;;;;;;;29.98;6.20;;;24.80;83.50;;;;;;5031812;28;20029;-69
2022/01/06 09:36:09;;;;;;;30.55;5.22;;;24.80;83.80;;;;;;5014215;28;20103;-69
2022/01/06 09:38:36;;;;;;;36.67;7.38;;;24.70;85.00;;;;;;5031026;28;20111;-69
2022/01/06 09:41:05;;;;;;;25.83;5.13;;;24.60;86.00;;;;;;5031329;28;20028;-69
2022/01/06 09:43:34;;;;;;;28.00;6.40;;;24.40;86.70;;;;;;5014224;28;20122;-69
2022/01/06 09:46:08;;;;;;;31.85;6.13;;;24.30;87.30;;;;;;5031275;28;20041;-69
2022/01/06 09:48:36;;;;;;;30.83;6.05;;;24.30;87.70;;;;;;5014032;28;20030;-69
2022/01/06 09:51:04;;;;;;;41.55;6.75;;;24.20;87.90;;;;;;5031173;28;20033;-69
2022/01/06 09:53:31;;;;;;;29.42;5.35;;;24.20;88.40;;;;;;5013997;28;20021;-69
2022/01/06 09:55:58;;;;;;;33.55;9.48;;;24.10;87.70;;;;;;5032588;28;20028;-69
2022/01/06 09:58:27;;;;;;;31.63;5.80;;;24.10;87.60;;;;;;5034909;28;20468;-68
2022/01/06 10:00:55;;;;;;;29.63;5.05;;;24.10;87.80;;;;;;5000939;28;20029;-69
2022/01/06 10:03:33;;;;;;;31.45;5.30;;;24.10;87.50;;;;;;5033636;28;20040;-69
2022/01/06 10:06:16;;;;;;;30.33;5.22;;;24.10;86.80;;;;;;5035003;28;20361;-68
2022/01/06 10:08:50;;;;;;;27.25;4.72;;;24.00;87.10;;;;;;5034818;28;20120;-69
2022/01/06 10:11:21;;;;;;;33.95;5.40;;;24.10;86.00;;;;;;5034509;28;20060;-69
2022/01/06 10:13:56;;;;;;;30.23;5.15;;;24.10;86.50;;;;;;5017132;28;20109;-68
2022/01/06 10:16:24;;;;;;;29.00;5.10;;;24.10;86.20;;;;;;5034777;28;20025;-69
2022/01/06 10:19:09;;;;;;;31.65;4.45;;;24.10;86.30;;;;;;5034458;28;20081;-69
2022/01/06 10:21:44;;;;;;;31.58;5.30;;;24.20;86.00;;;;;;5017376;28;20544;-70
2022/01/06 10:24:13;;;;;;;33.33;6.28;;;24.20;86.00;;;;;;5000860;28;20029;-69
2022/01/06 10:26:52;;;;;;;30.90;5.00;;;24.20;86.00;;;;;;5034930;28;20030;-70
2022/01/06 10:29:20;;;;;;;29.73;5.30;;;24.20;85.70;;;;;;5034523;28;20030;-69
2022/01/06 10:31:47;;;;;;;40.25;5.57;;;24.20;85.40;;;;;;5017012;28;20033;-69
2022/01/06 10:34:14;;;;;;;26.10;5.65;;;24.30;85.40;;;;;;5017267;28;20423;-69
2022/01/06 10:36:42;;;;;;;32.38;5.78;;;24.30;85.40;;;;;;5016926;28;20101;-69
2022/01/06 10:39:09;;;;;;;25.67;5.70;;;24.30;85.30;;;;;;5034495;28;20049;-69
2022/01/06 10:41:37;;;;;;;26.75;6.28;;;24.30;85.50;;;;;;5034237;28;20030;-69
2022/01/06 10:44:05;;;;;;;29.58;5.38;;;24.30;85.00;;;;;;5034085;28;20365;-70
2022/01/06 10:46:35;;;;;;;28.58;5.20;;;24.30;85.00;;;;;;5000341;28;20065;-69
2022/01/06 10:49:07;;;;;;;27.95;5.30;;;24.30;85.00;;;;;;5017162;28;20426;-69
2022/01/06 10:51:58;;;;;;;31.10;5.25;;;24.30;84.60;;;;;;5034103;28;20042;-69
2022/01/06 10:54:26;;;;;;;23.60;5.05;;;24.30;84.40;;;;;;5020000;28;20438;-69
2022/01/06 10:56:57;;;;;;;28.02;5.32;;;24.30;84.00;;;;;;5034138;28;20034;-69
2022/01/06 10:59:26;;;;;;;33.90;7.05;;;24.30;83.60;;;;;;5033957;28;20056;-69
2022/01/06 11:01:53;;;;;;;24.80;5.72;;;24.40;83.80;;;;;;5033681;28;20045;-69
2022/01/06 11:04:20;;;;;;;33.28;5.13;;;24.40;84.00;;;;;;5033904;28;20076;-69
2022/01/06 11:06:48;;;;;;;26.65;4.97;;;24.30;83.80;;;;;;5015760;28;20045;-69
2022/01/06 11:09:15;;;;;;;32.58;6.20;;;24.40;83.90;;;;;;5015644;28;20065;-69
2022/01/06 11:12:26;;;;;;;22.00;4.43;;;24.40;84.20;;;;;;5000040;28;20075;-69
2022/01/06 11:14:32;;;;;;;27.88;5.65;;;24.40;84.00;;;;;;5006276;28;20057;-69
2022/01/06 11:16:59;;;;;;;22.83;4.50;;;24.30;83.80;;;;;;5033725;28;20025;-69
2022/01/06 11:19:28;;;;;;;26.17;4.70;;;24.30;84.00;;;;;;5033301;28;20058;-69
2022/01/06 11:21:59;;;;;;;28.63;5.35;;;24.30;84.20;;;;;;5016238;28;20465;-69
2022/01/06 11:24:28;;;;;;;35.30;4.82;;;24.40;84.10;;;;;;5033518;28;20038;-69
2022/01/06 11:27:01;;;;;;;27.08;4.82;;;24.30;83.70;;;;;;5033626;28;20075;-69
2022/01/06 11:29:35;;;;;;;24.33;4.03;;;24.30;83.80;;;;;;5033502;28;20029;-69
2022/01/06 11:32:21;;;;;;;24.75;5.30;;;24.30;83.80;;;;;;5033034;28;20099;-69
2022/01/06 11:35:11;;;;;;;25.23;4.97;;;24.30;83.50;;;;;;5015799;28;20404;-69
2022/01/06 11:37:43;;;;;;;25.23;5.03;;;24.30;83.60;;;;;;5033440;28;20025;-68
2022/01/06 11:40:11;;;;;;;29.13;4.57;;;24.30;83.70;;;;;;5033567;28;20443;-69
2022/01/06 11:42:38;;;;;;;24.17;4.30;;;24.30;83.60;;;;;;5033028;28;20028;-69
2022/01/06 11:45:06;;;;;;;28.63;5.07;;;24.30;83.70;;;;;;5033189;28;20025;-69
2022/01/06 11:47:38;;;;;;;25.52;4.75;;;24.30;83.70;;;;;;5032888;28;20017;-69
2022/01/06 11:50:11;;;;;;;26.25;4.95;;;24.30;83.60;;;;;;5015683;28;20029;-69
2022/01/06 11:52:51;;;;;;;29.60;5.15;;;24.30;83.60;;;;;;5032740;28;20048;-69
2022/01/06 11:55:19;;;;;;;28.88;5.13;;;24.30;83.60;;;;;;5000721;28;20017;-69
2022/01/06 11:57:46;;;;;;;26.85;4.25;;;24.30;83.50;;;;;;5015535;28;20026;-68
2022/01/06 12:00:17;;;;;;;24.98;5.43;;;24.30;83.80;;;;;;5015377;28;20559;-69
2022/01/06 12:02:57;;;;;;;27.50;5.30;;;24.40;83.80;;;;;;5015919;28;20388;-69
2022/01/06 12:05:24;;;;;;;22.85;5.00;;;24.40;83.90;;;;;;5032859;28;20121;-69
2022/01/06 12:07:52;;;;;;;34.53;6.63;;;24.30;83.90;;;;;;5015235;28;20026;-68
2022/01/06 12:10:20;;;;;;;29.02;5.35;;;24.40;84.10;;;;;;5032755;28;20030;-69
2022/01/06 12:12:50;;;;;;;26.33;4.90;;;24.30;84.10;;;;;;5032553;28;20030;-69
2022/01/06 12:15:19;;;;;;;28.88;5.68;;;24.30;84.30;;;;;;4999357;28;20487;-70
2022/01/06 12:17:54;;;;;;;22.60;4.43;;;24.30;84.50;;;;;;5032793;28;20058;-67
2022/01/06 12:20:25;;;;;;;24.92;5.40;;;24.30;84.60;;;;;;5032363;28;20294;-68
2022/01/06 12:22:53;;;;;;;24.08;4.78;;;24.30;84.90;;;;;;5032431;28;20030;-69
2022/01/06 12:25:24;;;;;;;29.83;6.15;;;24.30;85.00;;;;;;5014743;28;20018;-69
2022/01/06 12:27:53;;;;;;;30.10;5.25;;;24.30;84.90;;;;;;5014552;28;20056;-69
2022/01/06 12:30:22;;;;;;;34.38;5.60;;;24.30;84.80;;;;;;5032111;28;20071;-68
2022/01/06 12:33:08;;;;;;;25.92;5.40;;;24.30;84.60;;;;;;5014515;28;20033;-68
2022/01/06 12:35:40;;;;;;;39.88;6.53;;;24.20;84.70;;;;;;5015167;28;20063;-68
2022/01/06 12:38:08;;;;;;;29.95;5.80;;;24.20;84.80;;;;;;5032273;28;20021;-68
2022/01/06 12:40:40;;;;;;;30.00;5.53;;;24.20;84.60;;;;;;5032069;28;20027;-68
2022/01/06 12:43:20;;;;;;;33.83;5.22;;;24.30;84.70;;;;;;5032030;28;20022;-68
2022/01/06 12:45:59;;;;;;;33.28;6.22;;;24.30;84.60;;;;;;5031909;28;20436;-68
2022/01/06 12:48:31;;;;;;;30.92;5.65;;;24.30;84.60;;;;;;5016034;28;20447;-68
2022/01/06 12:50:59;;;;;;;34.90;6.03;;;24.30;84.60;;;;;;5031698;28;20021;-68
2022/01/06 12:53:33;;;;;;;32.40;7.43;;;24.30;84.70;;;;;;5031963;28;21313;-68
2022/01/06 12:56:01;;;;;;;30.00;6.82;;;24.30;84.80;;;;;;5031900;28;20561;-68